sensor_id;sensor_type;location;lat;lon;timestamp;temperature;humidity
19172;DHT22;9718;52.200;21.052;2022-07-12T00:02:14;14.10;99.90
19172;DHT22;9718;52.200;21.052;2022-07-12T00:04:41;14.00;99.90
19172;DHT22;9718;52.200;21.052;2022-07-12T00:07:09;14.00;99.90
19172;DHT22;9718;52.200;21.052;2022-07-12T00:09:36;14.00;99.90
19172;DHT22;9718;52.200;21.052;2022-07-12T00:12:03;14.00;99.90
19172;DHT22;9718;52.200;21.052;2022-07-12T00:14:30;14.00;99.90
19172;DHT22;9718;52.200;21.052;2022-07-12T00:16:58;14.00;99.90
19172;DHT22;9718;52.200;21.052;2022-07-12T00:19:25;14.00;99.90
19172;DHT22;9718;52.200;21.052;2022-07-12T00:21:52;13.90;99.90
19172;DHT22;9718;52.200;21.052;2022-07-12T00:24:19;14.00;99.90
19172;DHT22;9718;52.200;21.052;2022-07-12T00:26:46;14.00;99.90
19172;DHT22;9718;52.200;21.052;2022-07-12T00:29:13;14.00;99.90
19172;DHT22;9718;52.200;21.052;2022-07-12T00:31:40;14.00;99.90
19172;DHT22;9718;52.200;21.052;2022-07-12T00:34:07;13.90;99.90
19172;DHT22;9718;52.200;21.052;2022-07-12T00:36:34;13.90;99.90
19172;DHT22;9718;52.200;21.052;2022-07-12T00:39:02;13.80;99.90
19172;DHT22;9718;52.200;21.052;2022-07-12T00:41:30;13.80;99.90
19172;DHT22;9718;52.200;21.052;2022-07-12T00:43:57;13.80;99.90
19172;DHT22;9718;52.200;21.052;2022-07-12T00:46:24;13.80;99.90
19172;DHT22;9718;52.200;21.052;2022-07-12T00:48:51;13.80;99.90
19172;DHT22;9718;52.200;21.052;2022-07-12T00:51:20;13.70;99.90
19172;DHT22;9718;52.200;21.052;2022-07-12T00:53:47;13.70;99.90
19172;DHT22;9718;52.200;21.052;2022-07-12T00:56:14;13.60;99.90
19172;DHT22;9718;52.200;21.052;2022-07-12T00:58:43;13.60;99.90
19172;DHT22;9718;52.200;21.052;2022-07-12T01:01:10;13.60;99.90
19172;DHT22;9718;52.200;21.052;2022-07-12T01:03:38;13.70;99.90
19172;DHT22;9718;52.200;21.052;2022-07-12T01:06:07;13.70;99.90
19172;DHT22;9718;52.200;21.052;2022-07-12T01:08:35;13.80;99.90
19172;DHT22;9718;52.200;21.052;2022-07-12T01:11:02;13.80;99.90
19172;DHT22;9718;52.200;21.052;2022-07-12T01:13:30;13.70;99.90
19172;DHT22;9718;52.200;21.052;2022-07-12T01:15:58;13.60;99.90
19172;DHT22;9718;52.200;21.052;2022-07-12T01:18:27;13.70;99.90
19172;DHT22;9718;52.200;21.052;2022-07-12T01:20:55;13.70;99.90
19172;DHT22;9718;52.200;21.052;2022-07-12T01:23:23;13.60;99.90
19172;DHT22;9718;52.200;21.052;2022-07-12T01:25:50;13.80;99.90
19172;DHT22;9718;52.200;21.052;2022-07-12T01:28:18;13.80;99.90
19172;DHT22;9718;52.200;21.052;2022-07-12T01:30:46;13.80;99.90
19172;DHT22;9718;52.200;21.052;2022-07-12T01:33:15;13.90;99.90
19172;DHT22;9718;52.200;21.052;2022-07-12T01:35:42;13.80;99.90
19172;DHT22;9718;52.200;21.052;2022-07-12T01:38:10;13.70;99.90
19172;DHT22;9718;52.200;21.052;2022-07-12T01:40:37;13.70;99.90
19172;DHT22;9718;52.200;21.052;2022-07-12T01:43:05;13.60;99.90
19172;DHT22;9718;52.200;21.052;2022-07-12T01:45:32;13.50;99.90
19172;DHT22;9718;52.200;21.052;2022-07-12T01:47:59;13.60;99.90
19172;DHT22;9718;52.200;21.052;2022-07-12T01:50:26;13.70;99.90
19172;DHT22;9718;52.200;21.052;2022-07-12T01:52:53;13.60;99.90
19172;DHT22;9718;52.200;21.052;2022-07-12T01:55:21;13.60;99.90
19172;DHT22;9718;52.200;21.052;2022-07-12T01:57:51;13.60;99.90
19172;DHT22;9718;52.200;21.052;2022-07-12T02:00:18;13.50;99.90
19172;DHT22;9718;52.200;21.052;2022-07-12T02:02:48;13.50;99.90
19172;DHT22;9718;52.200;21.052;2022-07-12T02:05:16;13.50;99.90
19172;DHT22;9718;52.200;21.052;2022-07-12T02:07:44;13.50;99.90
19172;DHT22;9718;52.200;21.052;2022-07-12T02:10:11;13.50;99.90
19172;DHT22;9718;52.200;21.052;2022-07-12T02:12:38;13.50;99.90
19172;DHT22;9718;52.200;21.052;2022-07-12T02:15:06;13.50;99.90
19172;DHT22;9718;52.200;21.052;2022-07-12T02:17:34;13.60;99.90
19172;DHT22;9718;52.200;21.052;2022-07-12T02:20:02;13.70;99.90
19172;DHT22;9718;52.200;21.052;2022-07-12T02:22:29;13.70;99.90
19172;DHT22;9718;52.200;21.052;2022-07-12T02:24:56;13.70;99.90
19172;DHT22;9718;52.200;21.052;2022-07-12T02:27:23;13.70;99.90
19172;DHT22;9718;52.200;21.052;2022-07-12T02:29:50;13.70;99.90
19172;DHT22;9718;52.200;21.052;2022-07-12T02:32:18;13.70;99.90
19172;DHT22;9718;52.200;21.052;2022-07-12T02:34:45;13.90;99.90
19172;DHT22;9718;52.200;21.052;2022-07-12T02:37:13;14.00;99.90
19172;DHT22;9718;52.200;21.052;2022-07-12T02:39:41;14.10;99.90
19172;DHT22;9718;52.200;21.052;2022-07-12T02:42:08;14.00;99.90
19172;DHT22;9718;52.200;21.052;2022-07-12T02:44:35;14.00;99.90
19172;DHT22;9718;52.200;21.052;2022-07-12T02:47:03;14.10;99.90
19172;DHT22;9718;52.200;21.052;2022-07-12T02:49:30;14.10;99.90
19172;DHT22;9718;52.200;21.052;2022-07-12T02:51:57;14.20;99.90
19172;DHT22;9718;52.200;21.052;2022-07-12T02:54:24;14.20;99.90
19172;DHT22;9718;52.200;21.052;2022-07-12T02:56:51;14.20;99.90
19172;DHT22;9718;52.200;21.052;2022-07-12T02:59:18;14.20;99.90
19172;DHT22;9718;52.200;21.052;2022-07-12T03:01:45;14.20;99.90
19172;DHT22;9718;52.200;21.052;2022-07-12T03:04:12;14.40;99.90
19172;DHT22;9718;52.200;21.052;2022-07-12T03:06:39;14.40;99.90
19172;DHT22;9718;52.200;21.052;2022-07-12T03:09:06;14.30;99.90
19172;DHT22;9718;52.200;21.052;2022-07-12T03:11:34;14.30;99.90
19172;DHT22;9718;52.200;21.052;2022-07-12T03:14:01;14.30;99.90
19172;DHT22;9718;52.200;21.052;2022-07-12T03:16:28;14.30;99.90
19172;DHT22;9718;52.200;21.052;2022-07-12T03:18:55;14.30;99.90
19172;DHT22;9718;52.200;21.052;2022-07-12T03:21:22;14.20;99.90
19172;DHT22;9718;52.200;21.052;2022-07-12T03:23:49;14.20;99.90
19172;DHT22;9718;52.200;21.052;2022-07-12T03:26:16;14.30;99.90
19172;DHT22;9718;52.200;21.052;2022-07-12T03:28:43;14.30;99.90
19172;DHT22;9718;52.200;21.052;2022-07-12T03:31:11;14.40;99.90
19172;DHT22;9718;52.200;21.052;2022-07-12T03:33:39;14.30;99.90
19172;DHT22;9718;52.200;21.052;2022-07-12T03:36:06;14.40;99.90
19172;DHT22;9718;52.200;21.052;2022-07-12T03:38:35;14.30;99.90
19172;DHT22;9718;52.200;21.052;2022-07-12T03:41:03;14.30;99.90
19172;DHT22;9718;52.200;21.052;2022-07-12T03:43:31;14.30;99.90
19172;DHT22;9718;52.200;21.052;2022-07-12T03:45:58;14.30;99.90
19172;DHT22;9718;52.200;21.052;2022-07-12T03:48:25;14.30;99.90
19172;DHT22;9718;52.200;21.052;2022-07-12T03:50:52;14.40;99.90
19172;DHT22;9718;52.200;21.052;2022-07-12T03:53:20;14.40;99.90
19172;DHT22;9718;52.200;21.052;2022-07-12T03:55:47;14.50;99.90
19172;DHT22;9718;52.200;21.052;2022-07-12T03:58:14;14.50;99.90
19172;DHT22;9718;52.200;21.052;2022-07-12T04:00:41;14.60;99.90
19172;DHT22;9718;52.200;21.052;2022-07-12T04:03:10;14.60;99.90
19172;DHT22;9718;52.200;21.052;2022-07-12T04:05:38;14.60;99.90
19172;DHT22;9718;52.200;21.052;2022-07-12T04:08:05;14.70;99.90
19172;DHT22;9718;52.200;21.052;2022-07-12T04:10:33;14.70;99.90
19172;DHT22;9718;52.200;21.052;2022-07-12T04:13:00;14.70;99.90
19172;DHT22;9718;52.200;21.052;2022-07-12T04:15:27;14.80;99.90
19172;DHT22;9718;52.200;21.052;2022-07-12T04:17:54;14.80;99.90
19172;DHT22;9718;52.200;21.052;2022-07-12T04:20:22;14.90;99.90
19172;DHT22;9718;52.200;21.052;2022-07-12T04:22:49;15.00;99.90
19172;DHT22;9718;52.200;21.052;2022-07-12T04:25:17;15.00;99.90
19172;DHT22;9718;52.200;21.052;2022-07-12T04:27:44;15.00;99.90
19172;DHT22;9718;52.200;21.052;2022-07-12T04:30:11;15.00;99.90
19172;DHT22;9718;52.200;21.052;2022-07-12T04:32:38;14.90;99.90
19172;DHT22;9718;52.200;21.052;2022-07-12T04:35:05;15.00;99.90
19172;DHT22;9718;52.200;21.052;2022-07-12T04:37:33;14.90;99.90
19172;DHT22;9718;52.200;21.052;2022-07-12T04:40:00;15.00;99.90
19172;DHT22;9718;52.200;21.052;2022-07-12T04:42:27;14.80;99.90
19172;DHT22;9718;52.200;21.052;2022-07-12T04:44:54;14.90;99.90
19172;DHT22;9718;52.200;21.052;2022-07-12T04:47:21;14.90;99.90
19172;DHT22;9718;52.200;21.052;2022-07-12T04:49:49;14.90;99.90
19172;DHT22;9718;52.200;21.052;2022-07-12T04:52:16;14.90;99.90
19172;DHT22;9718;52.200;21.052;2022-07-12T04:54:43;14.80;99.90
19172;DHT22;9718;52.200;21.052;2022-07-12T04:57:10;14.80;99.90
19172;DHT22;9718;52.200;21.052;2022-07-12T04:59:37;14.90;99.90
19172;DHT22;9718;52.200;21.052;2022-07-12T05:02:05;15.00;99.90
19172;DHT22;9718;52.200;21.052;2022-07-12T05:04:33;15.10;99.90
19172;DHT22;9718;52.200;21.052;2022-07-12T05:07:00;15.20;99.90
19172;DHT22;9718;52.200;21.052;2022-07-12T05:09:28;15.30;99.90
19172;DHT22;9718;52.200;21.052;2022-07-12T05:11:55;15.30;99.90
19172;DHT22;9718;52.200;21.052;2022-07-12T05:14:22;15.30;99.90
19172;DHT22;9718;52.200;21.052;2022-07-12T05:16:49;15.40;99.90
19172;DHT22;9718;52.200;21.052;2022-07-12T05:19:16;15.40;99.90
19172;DHT22;9718;52.200;21.052;2022-07-12T05:21:43;15.40;99.90
19172;DHT22;9718;52.200;21.052;2022-07-12T05:24:11;15.60;99.90
19172;DHT22;9718;52.200;21.052;2022-07-12T05:26:38;15.50;99.90
19172;DHT22;9718;52.200;21.052;2022-07-12T05:29:05;15.50;99.90
19172;DHT22;9718;52.200;21.052;2022-07-12T05:31:32;15.40;99.90
19172;DHT22;9718;52.200;21.052;2022-07-12T05:34:00;15.40;99.90
19172;DHT22;9718;52.200;21.052;2022-07-12T05:36:27;15.50;99.90
19172;DHT22;9718;52.200;21.052;2022-07-12T05:38:55;15.50;99.90
19172;DHT22;9718;52.200;21.052;2022-07-12T05:41:22;15.60;99.90
19172;DHT22;9718;52.200;21.052;2022-07-12T05:43:49;15.80;99.90
19172;DHT22;9718;52.200;21.052;2022-07-12T05:46:16;16.00;99.90
19172;DHT22;9718;52.200;21.052;2022-07-12T05:48:43;16.10;99.90
19172;DHT22;9718;52.200;21.052;2022-07-12T05:51:10;16.10;99.90
19172;DHT22;9718;52.200;21.052;2022-07-12T05:54:04;15.90;99.90
19172;DHT22;9718;52.200;21.052;2022-07-12T05:56:31;16.20;99.90
19172;DHT22;9718;52.200;21.052;2022-07-12T05:58:58;16.40;99.90
19172;DHT22;9718;52.200;21.052;2022-07-12T06:01:26;16.50;99.90
19172;DHT22;9718;52.200;21.052;2022-07-12T06:03:53;16.50;99.90
19172;DHT22;9718;52.200;21.052;2022-07-12T06:06:20;16.60;99.90
19172;DHT22;9718;52.200;21.052;2022-07-12T06:08:48;16.60;99.90
19172;DHT22;9718;52.200;21.052;2022-07-12T06:11:15;16.80;99.90
19172;DHT22;9718;52.200;21.052;2022-07-12T06:13:42;16.80;99.90
19172;DHT22;9718;52.200;21.052;2022-07-12T06:16:09;17.00;99.90
19172;DHT22;9718;52.200;21.052;2022-07-12T06:18:37;17.10;99.90
19172;DHT22;9718;52.200;21.052;2022-07-12T06:21:05;17.10;99.90
19172;DHT22;9718;52.200;21.052;2022-07-12T06:23:33;17.00;99.90
19172;DHT22;9718;52.200;21.052;2022-07-12T06:26:00;16.90;99.90
19172;DHT22;9718;52.200;21.052;2022-07-12T06:28:27;16.80;99.90
19172;DHT22;9718;52.200;21.052;2022-07-12T06:30:54;16.80;99.90
19172;DHT22;9718;52.200;21.052;2022-07-12T06:33:22;16.80;99.90
19172;DHT22;9718;52.200;21.052;2022-07-12T06:35:49;16.80;99.90
19172;DHT22;9718;52.200;21.052;2022-07-12T06:38:16;16.90;99.90
19172;DHT22;9718;52.200;21.052;2022-07-12T06:40:43;17.10;99.90
19172;DHT22;9718;52.200;21.052;2022-07-12T06:43:10;17.40;99.90
19172;DHT22;9718;52.200;21.052;2022-07-12T06:45:39;17.50;99.90
19172;DHT22;9718;52.200;21.052;2022-07-12T06:48:06;17.70;99.90
19172;DHT22;9718;52.200;21.052;2022-07-12T06:50:33;17.90;99.90
19172;DHT22;9718;52.200;21.052;2022-07-12T06:53:01;18.20;99.90
19172;DHT22;9718;52.200;21.052;2022-07-12T06:55:28;18.40;99.90
19172;DHT22;9718;52.200;21.052;2022-07-12T06:57:57;18.50;99.90
19172;DHT22;9718;52.200;21.052;2022-07-12T07:00:24;18.40;99.90
19172;DHT22;9718;52.200;21.052;2022-07-12T07:02:52;18.40;99.90
19172;DHT22;9718;52.200;21.052;2022-07-12T07:05:20;18.40;99.90
19172;DHT22;9718;52.200;21.052;2022-07-12T07:07:47;18.30;99.90
19172;DHT22;9718;52.200;21.052;2022-07-12T07:10:14;18.30;99.90
19172;DHT22;9718;52.200;21.052;2022-07-12T07:12:41;18.50;99.90
19172;DHT22;9718;52.200;21.052;2022-07-12T07:15:09;18.60;99.90
19172;DHT22;9718;52.200;21.052;2022-07-12T07:17:36;18.80;99.90
19172;DHT22;9718;52.200;21.052;2022-07-12T07:20:03;19.00;99.90
19172;DHT22;9718;52.200;21.052;2022-07-12T07:22:31;19.00;99.90
19172;DHT22;9718;52.200;21.052;2022-07-12T07:24:58;19.10;99.90
19172;DHT22;9718;52.200;21.052;2022-07-12T07:27:25;19.10;99.90
19172;DHT22;9718;52.200;21.052;2022-07-12T07:29:52;19.10;99.90
19172;DHT22;9718;52.200;21.052;2022-07-12T07:32:38;19.50;99.90
19172;DHT22;9718;52.200;21.052;2022-07-12T07:35:06;19.70;99.90
19172;DHT22;9718;52.200;21.052;2022-07-12T07:37:34;19.80;99.90
19172;DHT22;9718;52.200;21.052;2022-07-12T07:40:01;19.70;99.90
19172;DHT22;9718;52.200;21.052;2022-07-12T07:42:29;19.80;99.90
19172;DHT22;9718;52.200;21.052;2022-07-12T07:44:56;20.00;99.90
19172;DHT22;9718;52.200;21.052;2022-07-12T07:47:47;19.80;99.90
19172;DHT22;9718;52.200;21.052;2022-07-12T07:50:35;19.60;99.90
19172;DHT22;9718;52.200;21.052;2022-07-12T07:53:02;19.40;99.90
19172;DHT22;9718;52.200;21.052;2022-07-12T07:55:29;19.30;99.90
19172;DHT22;9718;52.200;21.052;2022-07-12T07:57:56;19.40;99.90
19172;DHT22;9718;52.200;21.052;2022-07-12T08:00:27;19.20;99.90
19172;DHT22;9718;52.200;21.052;2022-07-12T08:02:55;19.20;99.90
19172;DHT22;9718;52.200;21.052;2022-07-12T08:05:23;19.30;99.90
19172;DHT22;9718;52.200;21.052;2022-07-12T08:07:55;19.50;99.90
19172;DHT22;9718;52.200;21.052;2022-07-12T08:10:23;19.80;99.90
19172;DHT22;9718;52.200;21.052;2022-07-12T08:12:53;20.10;99.90
19172;DHT22;9718;52.200;21.052;2022-07-12T08:15:20;20.00;99.90
19172;DHT22;9718;52.200;21.052;2022-07-12T08:17:48;20.30;99.90
19172;DHT22;9718;52.200;21.052;2022-07-12T08:20:21;20.40;99.90
19172;DHT22;9718;52.200;21.052;2022-07-12T08:23:11;20.50;99.90
19172;DHT22;9718;52.200;21.052;2022-07-12T08:25:38;20.60;99.90
19172;DHT22;9718;52.200;21.052;2022-07-12T08:28:05;20.70;99.90
19172;DHT22;9718;52.200;21.052;2022-07-12T08:30:33;20.60;99.90
19172;DHT22;9718;52.200;21.052;2022-07-12T08:33:00;20.70;99.90
19172;DHT22;9718;52.200;21.052;2022-07-12T08:35:27;20.30;99.90
19172;DHT22;9718;52.200;21.052;2022-07-12T08:37:55;20.20;99.90
19172;DHT22;9718;52.200;21.052;2022-07-12T08:40:23;19.80;99.90
19172;DHT22;9718;52.200;21.052;2022-07-12T08:42:50;19.60;99.90
19172;DHT22;9718;52.200;21.052;2022-07-12T08:45:17;19.60;99.90
19172;DHT22;9718;52.200;21.052;2022-07-12T08:47:44;19.70;99.90
19172;DHT22;9718;52.200;21.052;2022-07-12T08:50:19;20.00;99.90
19172;DHT22;9718;52.200;21.052;2022-07-12T08:52:47;19.90;99.90
19172;DHT22;9718;52.200;21.052;2022-07-12T08:57:49;20.60;99.90
19172;DHT22;9718;52.200;21.052;2022-07-12T09:00:17;20.40;99.90
19172;DHT22;9718;52.200;21.052;2022-07-12T09:02:49;20.30;99.90
19172;DHT22;9718;52.200;21.052;2022-07-12T09:05:19;20.00;99.90
19172;DHT22;9718;52.200;21.052;2022-07-12T09:07:47;20.20;99.90
19172;DHT22;9718;52.200;21.052;2022-07-12T09:10:16;20.40;99.90
19172;DHT22;9718;52.200;21.052;2022-07-12T09:12:44;20.30;99.90
19172;DHT22;9718;52.200;21.052;2022-07-12T09:15:18;20.10;99.90
19172;DHT22;9718;52.200;21.052;2022-07-12T09:20:35;20.10;99.90
19172;DHT22;9718;52.200;21.052;2022-07-12T09:23:08;20.50;99.90
19172;DHT22;9718;52.200;21.052;2022-07-12T09:25:39;21.00;99.90
19172;DHT22;9718;52.200;21.052;2022-07-12T09:28:10;21.10;99.90
19172;DHT22;9718;52.200;21.052;2022-07-12T09:30:47;21.20;99.90
19172;DHT22;9718;52.200;21.052;2022-07-12T09:33:18;21.10;99.90
19172;DHT22;9718;52.200;21.052;2022-07-12T09:36:05;20.70;99.90
19172;DHT22;9718;52.200;21.052;2022-07-12T09:38:39;20.30;99.90
19172;DHT22;9718;52.200;21.052;2022-07-12T09:41:07;20.30;99.90
19172;DHT22;9718;52.200;21.052;2022-07-12T09:43:34;20.40;99.90
19172;DHT22;9718;52.200;21.052;2022-07-12T09:46:01;20.50;99.90
19172;DHT22;9718;52.200;21.052;2022-07-12T09:48:29;20.70;99.90
19172;DHT22;9718;52.200;21.052;2022-07-12T09:50:57;20.90;99.90
19172;DHT22;9718;52.200;21.052;2022-07-12T09:53:28;21.20;99.90
19172;DHT22;9718;52.200;21.052;2022-07-12T09:55:57;21.30;99.90
19172;DHT22;9718;52.200;21.052;2022-07-12T09:58:33;21.20;99.90
19172;DHT22;9718;52.200;21.052;2022-07-12T10:01:01;21.00;99.90
19172;DHT22;9718;52.200;21.052;2022-07-12T10:03:30;20.70;99.90
19172;DHT22;9718;52.200;21.052;2022-07-12T10:06:01;20.80;99.90
19172;DHT22;9718;52.200;21.052;2022-07-12T10:08:30;20.90;99.90
19172;DHT22;9718;52.200;21.052;2022-07-12T10:10:58;20.90;99.90
19172;DHT22;9718;52.200;21.052;2022-07-12T10:13:25;21.00;99.90
19172;DHT22;9718;52.200;21.052;2022-07-12T10:16:01;21.10;99.90
19172;DHT22;9718;52.200;21.052;2022-07-12T10:18:29;21.00;99.90
19172;DHT22;9718;52.200;21.052;2022-07-12T10:20:57;21.20;99.90
19172;DHT22;9718;52.200;21.052;2022-07-12T10:26:24;21.00;99.90
19172;DHT22;9718;52.200;21.052;2022-07-12T10:28:59;21.10;99.90
19172;DHT22;9718;52.200;21.052;2022-07-12T10:31:46;21.40;99.90
19172;DHT22;9718;52.200;21.052;2022-07-12T10:34:23;21.30;99.90
19172;DHT22;9718;52.200;21.052;2022-07-12T10:40:16;21.00;99.90
19172;DHT22;9718;52.200;21.052;2022-07-12T10:53:31;20.90;99.90
19172;DHT22;9718;52.200;21.052;2022-07-12T10:58:34;20.80;99.90
19172;DHT22;9718;52.200;21.052;2022-07-12T11:01:07;20.70;99.90
19172;DHT22;9718;52.200;21.052;2022-07-12T11:03:39;20.70;99.90
19172;DHT22;9718;52.200;21.052;2022-07-12T11:06:12;20.70;99.90
19172;DHT22;9718;52.200;21.052;2022-07-12T11:09:10;20.70;99.90
19172;DHT22;9718;52.200;21.052;2022-07-12T11:11:41;20.80;99.90
19172;DHT22;9718;52.200;21.052;2022-07-12T11:14:12;20.80;99.90
19172;DHT22;9718;52.200;21.052;2022-07-12T11:16:44;21.00;99.90
19172;DHT22;9718;52.200;21.052;2022-07-12T11:19:12;21.00;99.90
19172;DHT22;9718;52.200;21.052;2022-07-12T11:21:39;21.10;99.90
19172;DHT22;9718;52.200;21.052;2022-07-12T11:24:19;21.20;99.90
19172;DHT22;9718;52.200;21.052;2022-07-12T11:26:48;21.30;99.90
19172;DHT22;9718;52.200;21.052;2022-07-12T11:29:16;21.30;99.90
19172;DHT22;9718;52.200;21.052;2022-07-12T11:31:43;21.30;99.90
19172;DHT22;9718;52.200;21.052;2022-07-12T11:34:24;21.30;99.90
19172;DHT22;9718;52.200;21.052;2022-07-12T11:36:59;21.40;99.90
19172;DHT22;9718;52.200;21.052;2022-07-12T11:39:39;21.70;99.90
19172;DHT22;9718;52.200;21.052;2022-07-12T11:42:08;21.80;99.90
19172;DHT22;9718;52.200;21.052;2022-07-12T11:44:47;21.80;99.90
19172;DHT22;9718;52.200;21.052;2022-07-12T11:47:16;21.80;99.90
19172;DHT22;9718;52.200;21.052;2022-07-12T11:49:52;21.50;99.90
19172;DHT22;9718;52.200;21.052;2022-07-12T11:52:21;21.30;99.90
19172;DHT22;9718;52.200;21.052;2022-07-12T11:54:50;21.40;99.90
19172;DHT22;9718;52.200;21.052;2022-07-12T11:57:24;21.50;99.90
19172;DHT22;9718;52.200;21.052;2022-07-12T11:59:51;21.60;99.90
19172;DHT22;9718;52.200;21.052;2022-07-12T12:02:18;21.50;99.90
19172;DHT22;9718;52.200;21.052;2022-07-12T12:04:51;21.10;99.90
19172;DHT22;9718;52.200;21.052;2022-07-12T12:07:21;21.20;99.90
19172;DHT22;9718;52.200;21.052;2022-07-12T12:10:09;21.40;99.90
19172;DHT22;9718;52.200;21.052;2022-07-12T12:12:52;21.30;99.90
19172;DHT22;9718;52.200;21.052;2022-07-12T12:15:27;21.30;99.90
19172;DHT22;9718;52.200;21.052;2022-07-12T12:18:00;21.30;99.90
19172;DHT22;9718;52.200;21.052;2022-07-12T12:20:32;21.40;99.90
19172;DHT22;9718;52.200;21.052;2022-07-12T12:23:01;21.50;99.90
19172;DHT22;9718;52.200;21.052;2022-07-12T12:25:30;21.60;99.90
19172;DHT22;9718;52.200;21.052;2022-07-12T12:28:02;21.40;99.90
19172;DHT22;9718;52.200;21.052;2022-07-12T12:30:54;21.40;99.90
19172;DHT22;9718;52.200;21.052;2022-07-12T12:33:45;21.50;99.90
19172;DHT22;9718;52.200;21.052;2022-07-12T12:36:15;21.30;99.90
19172;DHT22;9718;52.200;21.052;2022-07-12T12:38:43;21.20;99.90
19172;DHT22;9718;52.200;21.052;2022-07-12T12:41:11;21.20;99.90
19172;DHT22;9718;52.200;21.052;2022-07-12T12:43:39;21.20;99.90
19172;DHT22;9718;52.200;21.052;2022-07-12T12:46:06;21.10;99.90
19172;DHT22;9718;52.200;21.052;2022-07-12T12:48:34;21.20;99.90
19172;DHT22;9718;52.200;21.052;2022-07-12T12:51:06;21.30;99.90
19172;DHT22;9718;52.200;21.052;2022-07-12T12:53:34;21.20;99.90
19172;DHT22;9718;52.200;21.052;2022-07-12T12:56:01;21.40;99.90
19172;DHT22;9718;52.200;21.052;2022-07-12T12:58:28;21.30;99.90
19172;DHT22;9718;52.200;21.052;2022-07-12T13:00:55;21.40;99.90
19172;DHT22;9718;52.200;21.052;2022-07-12T13:03:23;21.40;99.90
19172;DHT22;9718;52.200;21.052;2022-07-12T13:05:55;21.50;99.90
19172;DHT22;9718;52.200;21.052;2022-07-12T13:08:22;21.60;99.90
19172;DHT22;9718;52.200;21.052;2022-07-12T13:10:50;21.40;99.90
19172;DHT22;9718;52.200;21.052;2022-07-12T13:13:39;21.30;99.90
19172;DHT22;9718;52.200;21.052;2022-07-12T13:16:06;21.30;99.90
19172;DHT22;9718;52.200;21.052;2022-07-12T13:18:34;21.30;99.90
19172;DHT22;9718;52.200;21.052;2022-07-12T13:21:01;21.30;99.90
19172;DHT22;9718;52.200;21.052;2022-07-12T13:23:29;21.20;99.90
19172;DHT22;9718;52.200;21.052;2022-07-12T13:25:56;21.20;99.90
19172;DHT22;9718;52.200;21.052;2022-07-12T13:28:23;21.30;99.90
19172;DHT22;9718;52.200;21.052;2022-07-12T13:30:50;21.20;99.90
19172;DHT22;9718;52.200;21.052;2022-07-12T13:33:21;21.20;99.90
19172;DHT22;9718;52.200;21.052;2022-07-12T13:35:49;21.30;99.90
19172;DHT22;9718;52.200;21.052;2022-07-12T13:38:17;21.30;99.90
19172;DHT22;9718;52.200;21.052;2022-07-12T13:40:44;21.30;99.90
19172;DHT22;9718;52.200;21.052;2022-07-12T13:43:12;21.30;99.90
19172;DHT22;9718;52.200;21.052;2022-07-12T13:45:39;21.30;99.90
19172;DHT22;9718;52.200;21.052;2022-07-12T13:48:10;21.20;99.90
19172;DHT22;9718;52.200;21.052;2022-07-12T13:50:39;21.20;99.90
19172;DHT22;9718;52.200;21.052;2022-07-12T13:53:06;21.20;99.90
19172;DHT22;9718;52.200;21.052;2022-07-12T13:55:34;21.30;99.90
19172;DHT22;9718;52.200;21.052;2022-07-12T13:58:02;21.20;99.90
19172;DHT22;9718;52.200;21.052;2022-07-12T14:00:29;21.10;99.90
19172;DHT22;9718;52.200;21.052;2022-07-12T14:02:57;21.10;99.90
19172;DHT22;9718;52.200;21.052;2022-07-12T14:05:25;21.20;99.90
19172;DHT22;9718;52.200;21.052;2022-07-12T14:07:52;21.10;99.90
19172;DHT22;9718;52.200;21.052;2022-07-12T14:10:20;21.10;99.90
19172;DHT22;9718;52.200;21.052;2022-07-12T14:12:47;21.00;99.90
19172;DHT22;9718;52.200;21.052;2022-07-12T14:15:16;21.10;99.90
19172;DHT22;9718;52.200;21.052;2022-07-12T14:17:48;21.10;99.90
19172;DHT22;9718;52.200;21.052;2022-07-12T14:20:20;21.10;99.90
19172;DHT22;9718;52.200;21.052;2022-07-12T14:22:48;21.10;99.90
19172;DHT22;9718;52.200;21.052;2022-07-12T14:25:16;21.00;99.90
19172;DHT22;9718;52.200;21.052;2022-07-12T14:27:44;21.00;99.90
19172;DHT22;9718;52.200;21.052;2022-07-12T14:30:12;21.10;99.90
19172;DHT22;9718;52.200;21.052;2022-07-12T14:32:41;21.10;99.90
19172;DHT22;9718;52.200;21.052;2022-07-12T14:35:10;21.20;99.90
19172;DHT22;9718;52.200;21.052;2022-07-12T14:37:38;21.20;99.90
19172;DHT22;9718;52.200;21.052;2022-07-12T14:40:06;21.10;99.90
19172;DHT22;9718;52.200;21.052;2022-07-12T14:42:33;21.10;99.90
19172;DHT22;9718;52.200;21.052;2022-07-12T14:45:00;21.20;99.90
19172;DHT22;9718;52.200;21.052;2022-07-12T14:47:28;21.30;99.90
19172;DHT22;9718;52.200;21.052;2022-07-12T14:49:55;21.40;99.90
19172;DHT22;9718;52.200;21.052;2022-07-12T14:52:23;21.30;99.90
19172;DHT22;9718;52.200;21.052;2022-07-12T14:54:50;21.30;99.90
19172;DHT22;9718;52.200;21.052;2022-07-12T14:57:18;21.20;99.90
19172;DHT22;9718;52.200;21.052;2022-07-12T14:59:48;21.20;99.90
19172;DHT22;9718;52.200;21.052;2022-07-12T15:02:15;21.20;99.90
19172;DHT22;9718;52.200;21.052;2022-07-12T15:04:44;21.20;99.90
19172;DHT22;9718;52.200;21.052;2022-07-12T15:07:11;21.10;99.90
19172;DHT22;9718;52.200;21.052;2022-07-12T15:09:39;21.10;99.90
19172;DHT22;9718;52.200;21.052;2022-07-12T15:12:06;21.10;99.90
19172;DHT22;9718;52.200;21.052;2022-07-12T15:14:35;21.20;99.90
19172;DHT22;9718;52.200;21.052;2022-07-12T15:17:03;21.30;99.90
19172;DHT22;9718;52.200;21.052;2022-07-12T15:19:30;21.30;99.90
19172;DHT22;9718;52.200;21.052;2022-07-12T15:21:57;21.20;99.90
19172;DHT22;9718;52.200;21.052;2022-07-12T15:24:24;21.30;99.90
19172;DHT22;9718;52.200;21.052;2022-07-12T15:26:52;21.30;99.90
19172;DHT22;9718;52.200;21.052;2022-07-12T15:29:19;21.30;99.90
19172;DHT22;9718;52.200;21.052;2022-07-12T15:31:46;21.20;99.90
19172;DHT22;9718;52.200;21.052;2022-07-12T15:34:13;21.10;99.90
19172;DHT22;9718;52.200;21.052;2022-07-12T15:36:40;20.90;99.90
19172;DHT22;9718;52.200;21.052;2022-07-12T15:39:07;20.90;99.90
19172;DHT22;9718;52.200;21.052;2022-07-12T15:41:35;20.90;99.90
19172;DHT22;9718;52.200;21.052;2022-07-12T15:44:02;20.90;99.90
19172;DHT22;9718;52.200;21.052;2022-07-12T15:46:32;20.90;99.90
19172;DHT22;9718;52.200;21.052;2022-07-12T15:49:00;21.00;99.90
19172;DHT22;9718;52.200;21.052;2022-07-12T15:51:27;21.10;99.90
19172;DHT22;9718;52.200;21.052;2022-07-12T15:54:13;21.10;99.90
19172;DHT22;9718;52.200;21.052;2022-07-12T15:56:40;21.10;99.90
19172;DHT22;9718;52.200;21.052;2022-07-12T15:59:07;21.20;99.90
19172;DHT22;9718;52.200;21.052;2022-07-12T16:01:34;21.20;99.90
19172;DHT22;9718;52.200;21.052;2022-07-12T16:04:02;21.20;99.90
19172;DHT22;9718;52.200;21.052;2022-07-12T16:06:31;21.20;99.90